Time,TemperatureF,DewpointF,PressureIn,WindDirection,WindDirectionDegrees,WindSpeedMPH,WindSpeedGustMPH,Humidity,HourlyPrecipIn,Conditions,Clouds,dailyrainin,SoftwareType,DateUTC
2013-08-11 00:01:00,67.5,57.0,29.84,NW,324,0.0,0.0,69,0.00,CLR,FEW,0.00,WeatherDisplay:10.37,2013-08-11 04:01:00,
2013-08-11 00:02:00,67.5,57.0,29.84,NW,324,0.0,0.0,69,0.00,CLR,FEW,0.00,WeatherDisplay:10.37,2013-08-11 04:02:00,
2013-08-11 00:07:00,67.4,56.5,29.84,NW,324,0.0,0.0,68,0.00,CLR,FEW,0.00,WeatherDisplay:10.37,2013-08-11 04:07:00,
2013-08-11 00:12:00,67.3,56.4,29.84,NW,324,0.0,0.0,68,0.00,CLR,FEW,0.00,WeatherDisplay:10.37,2013-08-11 04:12:00,
2013-08-11 00:17:00,67.3,56.4,29.84,NW,324,0.0,0.0,68,0.00,CLR,FEW,0.00,WeatherDisplay:10.37,2013-08-11 04:17:00,
2013-08-11 00:22:00,67.3,56.4,29.84,NW,324,0.0,0.0,68,0.00,CLR,FEW,0.00,WeatherDisplay:10.37,2013-08-11 04:22:00,
2013-08-11 00:27:00,67.1,56.2,29.84,NW,324,0.0,0.0,68,0.00,CLR,FEW,0.00,WeatherDisplay:10.37,2013-08-11 04:27:00,
2013-08-11 00:32:00,67.0,55.7,29.84,NW,324,0.0,0.0,67,0.00,CLR,FEW,0.00,WeatherDisplay:10.37,2013-08-11 04:32:00,
2013-08-11 00:37:00,67.1,55.4,29.85,NW,324,0.0,0.0,66,0.00,CLR,FEW,0.00,WeatherDisplay:10.37,2013-08-11 04:37:00,
2013-08-11 00:42:00,67.1,55.4,29.85,NW,324,0.0,0.0,66,0.00,CLR,FEW,0.00,WeatherDisplay:10.37,2013-08-11 04:42:00,
2013-08-11 00:47:00,66.9,55.6,29.85,NW,324,0.0,0.0,67,0.00,CLR,FEW,0.00,WeatherDisplay:10.37,2013-08-11 04:47:00,
2013-08-11 00:52:00,66.7,55.4,29.85,NW,324,0.0,0.0,67,0.00,CLR,FEW,0.00,WeatherDisplay:10.37,2013-08-11 04:52:00,
2013-08-11 00:57:00,66.4,55.5,29.85,NW,324,0.0,0.0,68,0.00,CLR,FEW,0.00,WeatherDisplay:10.37,2013-08-11 04:57:00,
2013-08-11 01:02:00,66.1,55.6,29.85,NW,324,0.0,0.0,69,0.00,CLR,FEW,0.00,WeatherDisplay:10.37,2013-08-11 05:02:00,
2013-08-11 01:07:00,65.9,55.4,29.85,NW,324,0.0,0.0,69,0.00,CLR,FEW,0.00,WeatherDisplay:10.37,2013-08-11 05:07:00,
2013-08-11 01:12:00,65.7,55.6,29.85,NW,311,3.5,3.5,70,0.00,CLR,FEW,0.00,WeatherDisplay:10.37,2013-08-11 05:12:00,
2013-08-11 01:17:00,65.5,55.8,29.85,NW,313,5.0,5.0,71,0.00,CLR,FEW,0.00,WeatherDisplay:10.37,2013-08-11 05:17:00,
2013-08-11 01:22:00,65.3,55.7,29.85,NW,313,5.8,5.8,71,0.00,CLR,FEW,0.00,WeatherDisplay:10.37,2013-08-11 05:22:00,
2013-08-11 01:27:00,65.4,55.7,29.85,NW,321,4.6,4.6,71,0.00,CLR,FEW,0.00,WeatherDisplay:10.37,2013-08-11 05:27:00,
2013-08-11 01:32:00,65.3,55.7,29.85,NNW,327,5.0,5.0,71,0.00,CLR,FEW,0.00,WeatherDisplay:10.37,2013-08-11 05:32:00,
2013-08-11 01:37:00,65.3,55.7,29.86,NNW,329,4.0,4.0,71,0.00,CLR,FEW,0.00,WeatherDisplay:10.37,2013-08-11 05:37:00,
2013-08-11 01:43:00,65.2,55.6,29.85,NNW,329,6.0,6.0,71,0.00,CLR,FEW,0.00,WeatherDisplay:10.37,2013-08-11 05:43:00,
2013-08-11 01:48:00,65.0,55.8,29.86,NNW,330,8.1,8.1,72,0.00,CLR,FEW,0.00,WeatherDisplay:10.37,2013-08-11 05:48:00,
2013-08-11 01:54:00,64.8,55.9,29.86,NNW,336,6.0,6.0,73,0.00,CLR,FEW,0.00,WeatherDisplay:10.37,2013-08-11 05:54:00,
2013-08-11 02:00:00,64.7,56.2,29.86,NNW,333,5.0,7.0,74,0.00,CLR,FEW,0.00,WeatherDisplay:10.37,2013-08-11 06:00:00,
2013-08-11 02:05:00,64.5,56.0,29.86,NNW,328,5.0,7.0,74,0.00,CLR,FEW,0.00,WeatherDisplay:10.37,2013-08-11 06:05:00,
2013-08-11 02:10:00,64.3,56.2,29.86,NW,325,3.0,8.0,75,0.00,CLR,FEW,0.00,WeatherDisplay:10.37,2013-08-11 06:10:00,
2013-08-11 02:15:00,64.2,56.1,29.86,NNW,329,3.0,7.0,75,0.00,CLR,FEW,0.00,WeatherDisplay:10.37,2013-08-11 06:15:00,
2013-08-11 02:20:00,64.1,56.4,29.87,NW,322,5.0,5.0,76,0.00,CLR,FEW,0.00,WeatherDisplay:10.37,2013-08-11 06:20:00,
2013-08-11 02:25:00,64.0,56.6,29.87,NNW,327,5.0,7.0,77,0.00,CLR,FEW,0.00,WeatherDisplay:10.37,2013-08-11 06:25:00,
2013-08-11 02:30:00,64.0,56.6,29.87,NNW,346,6.9,6.9,77,0.00,CLR,FEW,0.00,WeatherDisplay:10.37,2013-08-11 06:30:00,
2013-08-11 02:35:00,64.0,56.6,29.86,North,351,5.8,5.8,77,0.00,CLR,FEW,0.00,WeatherDisplay:10.37,2013-08-11 06:35:00,
2013-08-11 02:40:00,64.0,56.6,29.87,North,350,5.0,5.0,77,0.00,CLR,FEW,0.00,WeatherDisplay:10.37,2013-08-11 06:40:00,
2013-08-11 02:45:00,64.0,56.6,29.87,NNW,330,5.0,5.0,77,0.00,CLR,FEW,0.00,WeatherDisplay:10.37,2013-08-11 06:45:00,
2013-08-11 02:51:00,63.9,56.5,29.87,NNW,327,5.0,5.0,77,0.00,CLR,FEW,0.00,WeatherDisplay:10.37,2013-08-11 06:51:00,
2013-08-11 02:56:00,63.7,56.7,29.87,NNW,328,5.0,5.0,78,0.00,CLR,FEW,0.00,WeatherDisplay:10.37,2013-08-11 06:56:00,
2013-08-11 03:01:00,63.4,56.4,29.87,NW,319,4.6,4.6,78,0.00,CLR,FEW,0.00,WeatherDisplay:10.37,2013-08-11 07:01:00,
2013-08-11 03:07:00,63.2,56.2,29.87,NW,313,4.6,4.6,78,0.00,CLR,FEW,0.00,WeatherDisplay:10.37,2013-08-11 07:07:00,
2013-08-11 03:12:00,63.0,56.7,29.87,NW,307,3.5,3.5,80,0.00,CLR,FEW,0.00,WeatherDisplay:10.37,2013-08-11 07:12:00,
2013-08-11 03:18:00,62.8,56.9,29.87,NW,304,3.5,3.5,81,0.00,CLR,FEW,0.00,WeatherDisplay:10.37,2013-08-11 07:18:00,
2013-08-11 03:24:00,62.7,57.1,29.87,WNW,303,3.5,3.5,82,0.00,CLR,FEW,0.00,WeatherDisplay:10.37,2013-08-11 07:24:00,
2013-08-11 03:29:00,63.0,57.8,29.87,WNW,295,4.0,4.0,83,0.00,CLR,FEW,0.00,WeatherDisplay:10.37,2013-08-11 07:29:00,
2013-08-11 03:35:00,62.9,57.4,29.87,WNW,291,3.0,5.0,82,0.00,CLR,FEW,0.00,WeatherDisplay:10.37,2013-08-11 07:35:00,
2013-08-11 03:40:00,62.6,57.4,29.87,WNW,287,3.0,5.0,83,0.00,CLR,FEW,0.00,WeatherDisplay:10.37,2013-08-11 07:40:00,
2013-08-11 03:45:00,62.6,57.3,29.87,WNW,288,2.0,4.0,83,0.00,CLR,FEW,0.00,WeatherDisplay:10.37,2013-08-11 07:45:00,
2013-08-11 03:50:00,62.5,57.3,29.87,WNW,288,2.0,4.0,83,0.00,CLR,FEW,0.00,WeatherDisplay:10.37,2013-08-11 07:50:00,
2013-08-11 03:55:00,62.4,57.2,29.87,WNW,288,2.0,4.0,83,0.00,CLR,FEW,0.00,WeatherDisplay:10.37,2013-08-11 07:55:00,
2013-08-11 04:00:00,62.4,57.5,29.88,WNW,288,2.0,3.0,84,0.00,CLR,FEW,0.00,WeatherDisplay:10.37,2013-08-11 08:00:00,
2013-08-11 04:05:00,62.2,57.3,29.88,WNW,292,2.0,4.0,84,0.00,CLR,FEW,0.00,WeatherDisplay:10.37,2013-08-11 08:05:00,
2013-08-11 04:10:00,62.1,57.2,29.88,WNW,299,4.0,4.0,84,0.00,CLR,FEW,0.00,WeatherDisplay:10.37,2013-08-11 08:10:00,
2013-08-11 04:16:00,61.9,57.3,29.88,WNW,299,3.5,3.5,85,0.00,CLR,FEW,0.00,WeatherDisplay:10.37,2013-08-11 08:16:00,
2013-08-11 04:21:00,62.0,57.4,29.87,WNW,301,3.5,3.5,85,0.00,CLR,FEW,0.00,WeatherDisplay:10.37,2013-08-11 08:21:00,
2013-08-11 04:26:00,62.1,57.5,29.88,WNW,301,2.3,2.3,85,0.00,CLR,FEW,0.00,WeatherDisplay:10.37,2013-08-11 08:26:00,
2013-08-11 04:32:00,61.9,57.3,29.88,WNW,301,2.3,2.3,85,0.00,CLR,FEW,0.00,WeatherDisplay:10.37,2013-08-11 08:32:00,
2013-08-11 04:37:00,61.6,57.0,29.88,WNW,301,2.3,2.3,85,0.00,CLR,FEW,0.00,WeatherDisplay:10.37,2013-08-11 08:37:00,
2013-08-11 04:42:00,61.4,57.2,29.88,WNW,301,0.0,0.0,86,0.00,CLR,FEW,0.00,WeatherDisplay:10.37,2013-08-11 08:42:00,
2013-08-11 04:47:00,61.2,57.0,29.88,WNW,301,0.0,0.0,86,0.00,CLR,FEW,0.00,WeatherDisplay:10.37,2013-08-11 08:47:00,
2013-08-11 04:52:00,61.0,57.1,29.88,WNW,301,0.0,0.0,87,0.00,CLR,FEW,0.00,WeatherDisplay:10.37,2013-08-11 08:52:00,
2013-08-11 04:58:00,60.8,57.2,29.88,WNW,301,0.0,0.0,88,0.00,CLR,FEW,0.00,WeatherDisplay:10.37,2013-08-11 08:58:00,
2013-08-11 05:03:00,60.5,57.9,29.89,WNW,301,2.0,2.0,91,0.00,CLR,FEW,0.00,WeatherDisplay:10.37,2013-08-11 09:03:00,
2013-08-11 05:09:00,60.4,58.1,29.89,WNW,301,3.0,3.0,92,0.00,CLR,FEW,0.00,WeatherDisplay:10.37,2013-08-11 09:09:00,
2013-08-11 05:15:00,60.6,58.3,29.89,WNW,301,2.0,4.0,92,0.00,CLR,FEW,0.00,WeatherDisplay:10.37,2013-08-11 09:15:00,
2013-08-11 05:20:00,60.6,58.0,29.90,WNW,301,1.0,4.0,91,0.00,CLR,FEW,0.00,WeatherDisplay:10.37,2013-08-11 09:20:00,
2013-08-11 05:25:00,60.4,57.8,29.89,WNW,301,1.0,4.0,91,0.00,CLR,FEW,0.00,WeatherDisplay:10.37,2013-08-11 09:25:00,
2013-08-11 05:30:00,60.2,57.9,29.89,WNW,302,1.0,3.0,92,0.00,CLR,FEW,0.00,WeatherDisplay:10.37,2013-08-11 09:30:00,
2013-08-11 05:35:00,60.1,58.1,29.89,NW,305,3.5,3.5,93,0.00,CLR,FEW,0.00,WeatherDisplay:10.37,2013-08-11 09:35:00,
2013-08-11 05:40:00,60.1,58.1,29.89,NW,310,2.3,2.3,93,0.00,CLR,FEW,0.00,WeatherDisplay:10.37,2013-08-11 09:40:00,
2013-08-11 05:45:00,60.0,57.7,29.89,NW,310,3.5,3.5,92,0.00,CLR,FEW,0.00,WeatherDisplay:10.37,2013-08-11 09:45:00,
2013-08-11 05:50:00,60.1,57.8,29.89,NW,314,3.5,3.5,92,0.00,CLR,FEW,0.00,WeatherDisplay:10.37,2013-08-11 09:50:00,
2013-08-11 05:55:00,60.3,57.9,29.90,NW,313,1.0,4.0,92,0.00,CLR,FEW,0.00,WeatherDisplay:10.37,2013-08-11 09:55:00,
2013-08-11 06:00:00,60.0,58.0,29.90,NW,314,0.0,0.0,93,0.00,CLR,FEW,0.00,WeatherDisplay:10.37,2013-08-11 10:00:00,
2013-08-11 06:05:00,59.7,58.0,29.90,NW,314,0.0,0.0,94,0.00,CLR,FEW,0.00,WeatherDisplay:10.37,2013-08-11 10:05:00,
2013-08-11 06:10:00,59.4,58.3,29.90,NW,314,0.0,0.0,96,0.00,CLR,FEW,0.00,WeatherDisplay:10.37,2013-08-11 10:10:00,
2013-08-11 06:15:00,59.2,58.3,29.90,NW,314,0.0,0.0,97,0.00,CLR,FEW,0.00,WeatherDisplay:10.37,2013-08-11 10:15:00,
2013-08-11 06:20:00,59.2,58.6,29.90,NW,314,0.0,0.0,98,0.00,CLR,FEW,0.00,WeatherDisplay:10.37,2013-08-11 10:20:00,
2013-08-11 06:25:00,59.4,59.1,29.91,NW,314,0.0,0.0,99,0.00,CLR,FEW,0.00,WeatherDisplay:10.37,2013-08-11 10:25:00,
2013-08-11 06:30:00,59.6,59.3,29.90,NW,314,0.0,0.0,99,0.00,CLR,FEW,0.00,WeatherDisplay:10.37,2013-08-11 10:30:00,
2013-08-11 06:35:00,59.9,59.9,29.90,NW,314,0.0,0.0,100,0.00,CLR,FEW,0.00,WeatherDisplay:10.37,2013-08-11 10:35:00,
2013-08-11 06:41:00,60.2,60.2,29.91,NW,314,0.0,0.0,100,0.00,CLR,FEW,0.00,WeatherDisplay:10.37,2013-08-11 10:41:00,
2013-08-11 06:46:00,60.5,60.5,29.91,NW,314,0.0,0.0,100,0.00,CLR,FEW,0.00,WeatherDisplay:10.37,2013-08-11 10:46:00,
2013-08-11 06:51:00,60.7,60.7,29.91,NW,314,0.0,0.0,100,0.00,CLR,FEW,0.00,WeatherDisplay:10.37,2013-08-11 10:51:00,
2013-08-11 06:56:00,60.8,60.5,29.91,NW,314,0.0,0.0,99,0.00,CLR,FEW,0.00,WeatherDisplay:10.37,2013-08-11 10:56:00,
2013-08-11 07:02:00,60.8,60.2,29.91,NW,314,0.0,0.0,98,0.00,CLR,FEW,0.00,WeatherDisplay:10.37,2013-08-11 11:02:00,
2013-08-11 07:07:00,60.7,59.8,29.91,NW,314,0.0,0.0,97,0.00,CLR,FEW,0.00,WeatherDisplay:10.37,2013-08-11 11:07:00,
2013-08-11 07:12:00,61.1,60.5,29.91,NW,314,0.0,0.0,98,0.00,CLR,FEW,0.00,WeatherDisplay:10.37,2013-08-11 11:12:00,
2013-08-11 07:17:00,61.3,61.0,29.91,NW,314,0.0,0.0,99,0.00,CLR,FEW,0.00,WeatherDisplay:10.37,2013-08-11 11:17:00,
2013-08-11 07:24:00,61.9,61.6,29.92,NW,314,0.0,0.0,99,0.00,CLR,FEW,0.00,WeatherDisplay:10.37,2013-08-11 11:24:00,
2013-08-11 07:29:00,62.4,61.8,29.91,NW,314,0.0,0.0,98,0.00,CLR,FEW,0.00,WeatherDisplay:10.37,2013-08-11 11:29:00,
2013-08-11 07:34:00,62.6,61.4,29.91,NW,314,0.0,0.0,96,0.00,CLR,FEW,0.00,WeatherDisplay:10.37,2013-08-11 11:34:00,
2013-08-11 07:39:00,63.0,61.5,29.91,NW,314,0.0,0.0,95,0.00,CLR,FEW,0.00,WeatherDisplay:10.37,2013-08-11 11:39:00,
2013-08-11 07:44:00,63.2,61.1,29.91,WNW,282,2.0,2.0,93,0.00,CLR,FEW,0.00,WeatherDisplay:10.37,2013-08-11 11:44:00,
2013-08-11 07:50:00,63.1,61.0,29.91,WNW,283,2.3,2.3,93,0.00,CLR,FEW,0.00,WeatherDisplay:10.37,2013-08-11 11:50:00,
2013-08-11 07:55:00,63.1,60.7,29.92,WNW,283,0.0,1.0,92,0.00,CLR,FEW,0.00,WeatherDisplay:10.37,2013-08-11 11:55:00,
2013-08-11 08:00:00,63.3,60.6,29.91,WNW,283,0.0,1.0,91,0.00,CLR,FEW,0.00,WeatherDisplay:10.37,2013-08-11 12:00:00,
2013-08-11 08:05:00,63.5,60.8,29.91,WNW,283,1.2,1.2,91,0.00,CLR,FEW,0.00,WeatherDisplay:10.37,2013-08-11 12:05:00,
2013-08-11 08:10:00,63.6,60.6,29.92,WNW,283,0.0,1.0,90,0.00,CLR,FEW,0.00,WeatherDisplay:10.37,2013-08-11 12:10:00,
2013-08-11 08:15:00,63.9,60.9,29.92,WNW,283,0.0,1.0,90,0.00,CLR,FEW,0.00,WeatherDisplay:10.37,2013-08-11 12:15:00,
2013-08-11 08:20:00,64.0,60.7,29.92,WNW,283,0.0,0.0,89,0.00,CLR,FEW,0.00,WeatherDisplay:10.37,2013-08-11 12:20:00,
2013-08-11 08:26:00,64.4,60.8,29.92,WNW,283,0.0,0.0,88,0.00,CLR,FEW,0.00,WeatherDisplay:10.37,2013-08-11 12:26:00,
2013-08-11 08:31:00,64.7,61.1,29.92,NNE,24,3.5,3.5,88,0.00,CLR,FEW,0.00,WeatherDisplay:10.37,2013-08-11 12:31:00,
2013-08-11 08:36:00,64.9,60.9,29.92,NE,51,3.5,3.5,87,0.00,CLR,FEW,0.00,WeatherDisplay:10.37,2013-08-11 12:36:00,
2013-08-11 08:41:00,64.9,60.6,29.92,NE,51,2.3,0.0,86,0.00,CLR,FEW,0.00,WeatherDisplay:10.37,2013-08-11 12:41:00,
2013-08-11 08:46:00,65.1,60.8,29.92,NE,51,2.3,2.3,86,0.00,CLR,FEW,0.00,WeatherDisplay:10.37,2013-08-11 12:46:00,
2013-08-11 08:51:00,65.3,60.7,29.92,NE,51,2.3,2.3,85,0.00,CLR,FEW,0.00,WeatherDisplay:10.37,2013-08-11 12:51:00,
2013-08-11 08:56:00,65.3,60.3,29.91,NE,51,2.3,2.3,84,0.00,CLR,FEW,0.00,WeatherDisplay:10.37,2013-08-11 12:56:00,
2013-08-11 09:02:00,65.5,60.2,29.92,NE,51,2.3,2.3,83,0.00,CLR,FEW,0.00,WeatherDisplay:10.37,2013-08-11 13:02:00,
2013-08-11 09:07:00,65.8,59.8,29.91,NE,54,2.3,2.3,81,0.00,CLR,FEW,0.00,WeatherDisplay:10.37,2013-08-11 13:07:00,
2013-08-11 09:12:00,66.0,59.7,29.91,ENE,59,2.3,2.3,80,0.00,CLR,FEW,0.00,WeatherDisplay:10.37,2013-08-11 13:12:00,
2013-08-11 09:17:00,66.1,59.4,29.91,ENE,59,1.2,1.2,79,0.00,CLR,FEW,0.00,WeatherDisplay:10.37,2013-08-11 13:17:00,
2013-08-11 09:23:00,66.4,59.0,29.91,ENE,58,1.2,0.0,77,0.00,CLR,FEW,0.00,WeatherDisplay:10.37,2013-08-11 13:23:00,
2013-08-11 09:28:00,66.8,59.0,29.91,ENE,60,3.5,3.5,76,0.00,CLR,FEW,0.00,WeatherDisplay:10.37,2013-08-11 13:28:00,
2013-08-11 09:33:00,66.8,58.6,29.91,ENE,60,0.0,0.0,75,0.00,CLR,FEW,0.00,WeatherDisplay:10.37,2013-08-11 13:33:00,
2013-08-11 09:39:00,67.1,58.2,29.91,ENE,60,0.0,0.0,73,0.00,CLR,FEW,0.00,WeatherDisplay:10.37,2013-08-11 13:39:00,
2013-08-11 09:44:00,67.5,57.8,29.91,ENE,74,3.5,3.5,71,0.00,CLR,FEW,0.00,WeatherDisplay:10.37,2013-08-11 13:44:00,
2013-08-11 09:49:00,67.7,57.6,29.92,NE,40,4.0,4.0,70,0.00,CLR,FEW,0.00,WeatherDisplay:10.37,2013-08-11 13:49:00,
2013-08-11 09:54:00,67.9,56.9,29.91,NE,44,3.5,3.5,68,0.00,CLR,FEW,0.00,WeatherDisplay:10.37,2013-08-11 13:54:00,
2013-08-11 10:00:00,68.3,56.1,29.92,NE,45,3.5,3.5,65,0.00,CLR,FEW,0.00,WeatherDisplay:10.37,2013-08-11 14:00:00,
2013-08-11 10:05:00,68.5,56.3,29.92,NE,44,2.3,2.3,65,0.00,CLR,FEW,0.00,WeatherDisplay:10.37,2013-08-11 14:05:00,
2013-08-11 10:10:00,68.7,55.2,29.92,East,79,5.0,6.0,62,0.00,CLR,FEW,0.00,WeatherDisplay:10.37,2013-08-11 14:10:00,
2013-08-11 10:15:00,68.9,54.4,29.91,ENE,63,7.0,7.0,60,0.00,CLR,FEW,0.00,WeatherDisplay:10.37,2013-08-11 14:15:00,
2013-08-11 10:20:00,69.1,54.2,29.92,ENE,73,5.8,5.8,59,0.00,CLR,FEW,0.00,WeatherDisplay:10.37,2013-08-11 14:20:00,
2013-08-11 10:25:00,69.5,53.6,29.92,East,85,5.0,5.0,57,0.00,CLR,FEW,0.00,WeatherDisplay:10.37,2013-08-11 14:25:00,
2013-08-11 10:30:00,69.5,53.1,29.91,NE,52,6.9,6.9,56,0.00,CLR,FEW,0.00,WeatherDisplay:10.37,2013-08-11 14:30:00,
2013-08-11 10:36:00,69.4,53.0,29.91,NE,52,7.0,7.0,56,0.00,CLR,FEW,0.00,WeatherDisplay:10.37,2013-08-11 14:36:00,
2013-08-11 10:41:00,69.6,52.2,29.91,ENE,71,4.6,4.6,54,0.00,CLR,FEW,0.00,WeatherDisplay:10.37,2013-08-11 14:41:00,
2013-08-11 10:46:00,69.8,52.4,29.91,NE,52,5.8,5.8,54,0.00,CLR,FEW,0.00,WeatherDisplay:10.37,2013-08-11 14:46:00,
2013-08-11 10:51:00,70.0,52.6,29.91,NNE,18,5.0,5.0,54,0.00,CLR,FEW,0.00,WeatherDisplay:10.37,2013-08-11 14:51:00,
2013-08-11 10:56:00,70.1,52.7,29.91,NNE,21,7.0,7.0,54,0.00,CLR,FEW,0.00,WeatherDisplay:10.37,2013-08-11 14:56:00,
2013-08-11 11:02:00,70.1,52.7,29.91,NE,47,2.3,2.3,54,0.00,CLR,FEW,0.00,WeatherDisplay:10.37,2013-08-11 15:02:00,
2013-08-11 11:07:00,70.1,52.7,29.91,NE,37,3.5,3.5,54,0.00,CLR,FEW,0.00,WeatherDisplay:10.37,2013-08-11 15:07:00,
2013-08-11 11:12:00,70.0,52.6,29.91,NNW,331,3.5,3.5,54,0.00,CLR,FEW,0.00,WeatherDisplay:10.37,2013-08-11 15:12:00,
2013-08-11 11:18:00,70.3,53.4,29.91,North,0,3.5,3.5,55,0.00,CLR,FEW,0.00,WeatherDisplay:10.37,2013-08-11 15:18:00,
2013-08-11 11:23:00,71.1,53.1,29.91,NE,53,5.8,5.8,53,0.00,CLR,FEW,0.00,WeatherDisplay:10.37,2013-08-11 15:23:00,
2013-08-11 11:28:00,71.1,52.6,29.91,NNE,32,3.5,3.5,52,0.00,CLR,FEW,0.00,WeatherDisplay:10.37,2013-08-11 15:28:00,
2013-08-11 11:33:00,71.0,53.0,29.90,NNE,17,2.3,2.3,53,0.00,CLR,FEW,0.00,WeatherDisplay:10.37,2013-08-11 15:33:00,
2013-08-11 11:39:00,71.1,53.1,29.90,NE,40,5.0,5.0,53,0.00,CLR,FEW,0.00,WeatherDisplay:10.37,2013-08-11 15:39:00,
2013-08-11 11:44:00,71.1,53.1,29.90,ENE,62,1.2,1.2,53,0.00,CLR,FEW,0.00,WeatherDisplay:10.37,2013-08-11 15:44:00,
2013-08-11 11:49:00,71.7,53.1,29.90,ENE,76,5.0,5.0,52,0.00,CLR,FEW,0.00,WeatherDisplay:10.37,2013-08-11 15:49:00,
2013-08-11 11:54:00,72.3,53.2,29.90,ESE,106,3.5,3.5,51,0.00,CLR,FEW,0.00,WeatherDisplay:10.37,2013-08-11 15:54:00,
2013-08-11 11:59:00,72.8,53.6,29.90,South,184,6.9,6.9,51,0.00,CLR,FEW,0.00,WeatherDisplay:10.37,2013-08-11 15:59:00,
2013-08-11 12:04:00,72.7,53.5,29.90,South,189,2.3,0.0,51,0.00,CLR,FEW,0.00,WeatherDisplay:10.37,2013-08-11 16:04:00,
2013-08-11 12:10:00,72.7,54.1,29.91,South,190,0.0,1.0,52,0.00,CLR,FEW,0.00,WeatherDisplay:10.37,2013-08-11 16:10:00,
2013-08-11 12:15:00,73.3,54.6,29.90,South,191,0.0,2.0,52,0.00,CLR,FEW,0.00,WeatherDisplay:10.37,2013-08-11 16:15:00,
2013-08-11 12:20:00,73.8,54.5,29.90,South,190,0.0,1.0,51,0.00,CLR,FEW,0.00,WeatherDisplay:10.37,2013-08-11 16:20:00,
2013-08-11 12:25:00,74.1,54.8,29.90,SSW,211,2.0,6.0,51,0.00,CLR,FEW,0.00,WeatherDisplay:10.37,2013-08-11 16:25:00,
2013-08-11 12:30:00,74.0,54.7,29.89,WSW,240,1.0,6.0,51,0.00,CLR,FEW,0.00,WeatherDisplay:10.37,2013-08-11 16:30:00,
2013-08-11 12:35:00,74.1,55.3,29.89,SW,234,1.0,7.0,52,0.00,CLR,FEW,0.00,WeatherDisplay:10.37,2013-08-11 16:35:00,
2013-08-11 12:40:00,74.0,54.7,29.89,West,261,5.0,9.0,51,0.00,CLR,FEW,0.00,WeatherDisplay:10.37,2013-08-11 16:40:00,
2013-08-11 12:45:00,73.9,54.6,29.89,WNW,292,11.5,11.5,51,0.00,CLR,FEW,0.00,WeatherDisplay:10.37,2013-08-11 16:45:00,
2013-08-11 12:50:00,73.6,53.8,29.89,WSW,239,3.5,3.5,50,0.00,CLR,FEW,0.00,WeatherDisplay:10.37,2013-08-11 16:50:00,
2013-08-11 12:55:00,73.7,54.4,29.89,SW,216,11.0,11.0,51,0.00,CLR,FEW,0.00,WeatherDisplay:10.37,2013-08-11 16:55:00,
2013-08-11 13:00:00,74.0,54.2,29.89,West,261,11.5,11.5,50,0.00,CLR,FEW,0.00,WeatherDisplay:10.37,2013-08-11 17:00:00,
2013-08-11 13:05:00,73.8,52.9,29.88,WSW,238,10.0,10.0,48,0.00,CLR,FEW,0.00,WeatherDisplay:10.37,2013-08-11 17:05:00,
2013-08-11 13:11:00,73.5,53.2,29.89,SSW,193,8.1,8.1,49,0.00,CLR,FEW,0.00,WeatherDisplay:10.37,2013-08-11 17:11:00,
2013-08-11 13:17:00,73.9,53.5,29.89,SW,235,10.4,10.4,49,0.00,CLR,FEW,0.00,WeatherDisplay:10.37,2013-08-11 17:17:00,
2013-08-11 13:22:00,74.3,53.3,29.88,SSW,213,8.0,8.0,48,0.00,CLR,FEW,0.00,WeatherDisplay:10.37,2013-08-11 17:22:00,
2013-08-11 13:27:00,74.5,53.5,29.87,West,270,6.9,6.9,48,0.00,CLR,FEW,0.00,WeatherDisplay:10.37,2013-08-11 17:27:00,
2013-08-11 13:32:00,74.5,53.5,29.87,WSW,251,8.1,8.1,48,0.00,CLR,FEW,0.00,WeatherDisplay:10.37,2013-08-11 17:32:00,
2013-08-11 13:38:00,74.9,53.9,29.87,WNW,303,9.0,9.0,48,0.00,CLR,FEW,0.00,WeatherDisplay:10.37,2013-08-11 17:38:00,
2013-08-11 13:43:00,74.9,53.9,29.87,NW,307,9.2,9.2,48,0.00,CLR,FEW,0.00,WeatherDisplay:10.37,2013-08-11 17:43:00,
2013-08-11 13:48:00,74.7,54.8,29.87,SW,226,5.0,5.0,50,0.00,CLR,FEW,0.00,WeatherDisplay:10.37,2013-08-11 17:48:00,
2013-08-11 13:53:00,74.7,53.7,29.87,SSW,208,9.2,9.2,48,0.00,CLR,FEW,0.00,WeatherDisplay:10.37,2013-08-11 17:53:00,
2013-08-11 13:58:00,74.4,54.0,29.86,SSW,202,3.5,3.5,49,0.00,CLR,FEW,0.00,WeatherDisplay:10.37,2013-08-11 17:58:00,
2013-08-11 14:03:00,74.9,53.9,29.87,SW,229,9.2,9.2,48,0.00,CLR,FEW,0.00,WeatherDisplay:10.37,2013-08-11 18:03:00,
2013-08-11 14:08:00,74.8,54.4,29.87,SSW,212,11.0,11.0,49,0.00,CLR,FEW,0.00,WeatherDisplay:10.37,2013-08-11 18:08:00,
2013-08-11 14:15:00,75.1,54.6,29.87,West,278,11.5,11.5,49,0.00,CLR,FEW,0.00,WeatherDisplay:10.37,2013-08-11 18:15:00,
2013-08-11 14:20:00,75.3,55.4,29.86,SSW,213,13.8,13.8,50,0.00,CLR,FEW,0.00,WeatherDisplay:10.37,2013-08-11 18:20:00,
2013-08-11 14:25:00,75.0,55.6,29.87,WSW,243,10.4,10.4,51,0.00,CLR,FEW,0.00,WeatherDisplay:10.37,2013-08-11 18:25:00,
2013-08-11 14:30:00,75.1,55.7,29.86,WSW,237,11.5,11.5,51,0.00,CLR,FEW,0.00,WeatherDisplay:10.37,2013-08-11 18:30:00,
2013-08-11 14:35:00,75.4,56.5,29.86,WNW,289,10.4,10.4,52,0.00,CLR,FEW,0.00,WeatherDisplay:10.37,2013-08-11 18:35:00,
2013-08-11 14:41:00,75.5,56.1,29.86,SW,215,11.5,11.5,51,0.00,CLR,FEW,0.00,WeatherDisplay:10.37,2013-08-11 18:41:00,
2013-08-11 14:47:00,75.4,56.5,29.86,SSW,196,6.9,6.9,52,0.00,CLR,FEW,0.00,WeatherDisplay:10.37,2013-08-11 18:47:00,
2013-08-11 14:52:00,75.4,56.5,29.86,SW,215,6.9,6.9,52,0.00,CLR,FEW,0.00,WeatherDisplay:10.37,2013-08-11 18:52:00,
2013-08-11 14:57:00,75.5,56.6,29.85,West,268,10.4,10.4,52,0.00,CLR,FEW,0.00,WeatherDisplay:10.37,2013-08-11 18:57:00,
2013-08-11 15:03:00,76.0,56.6,29.86,SSW,206,12.7,12.7,51,0.00,CLR,FEW,0.00,WeatherDisplay:10.37,2013-08-11 19:03:00,
2013-08-11 15:08:00,75.8,55.8,29.85,SSW,212,13.0,13.0,50,0.00,CLR,FEW,0.00,WeatherDisplay:10.37,2013-08-11 19:08:00,
2013-08-11 15:14:00,75.6,56.2,29.85,SW,227,8.1,8.1,51,0.00,CLR,FEW,0.00,WeatherDisplay:10.37,2013-08-11 19:14:00,
2013-08-11 15:19:00,76.0,57.1,29.85,West,266,6.9,6.9,52,0.00,CLR,FEW,0.00,WeatherDisplay:10.37,2013-08-11 19:19:00,
2013-08-11 15:24:00,76.1,56.7,29.84,SW,217,12.0,12.0,51,0.00,CLR,FEW,0.00,WeatherDisplay:10.37,2013-08-11 19:24:00,
2013-08-11 15:29:00,75.8,56.9,29.85,SW,219,9.2,9.2,52,0.00,CLR,FEW,0.00,WeatherDisplay:10.37,2013-08-11 19:29:00,
2013-08-11 15:35:00,75.7,56.8,29.85,SW,222,10.0,10.0,52,0.00,CLR,FEW,0.00,WeatherDisplay:10.37,2013-08-11 19:35:00,
2013-08-11 15:40:00,75.4,56.5,29.84,SW,222,9.0,9.0,52,0.00,CLR,FEW,0.00,WeatherDisplay:10.37,2013-08-11 19:40:00,
2013-08-11 15:45:00,75.5,56.6,29.84,SW,229,9.2,9.2,52,0.00,CLR,FEW,0.00,WeatherDisplay:10.37,2013-08-11 19:45:00,
2013-08-11 15:50:00,75.6,57.3,29.84,West,261,8.1,8.1,53,0.00,CLR,FEW,0.00,WeatherDisplay:10.37,2013-08-11 19:50:00,
2013-08-11 15:55:00,75.8,57.4,29.84,SW,235,8.0,8.0,53,0.00,CLR,FEW,0.00,WeatherDisplay:10.37,2013-08-11 19:55:00,
2013-08-11 16:00:00,75.8,56.9,29.84,WSW,254,11.5,11.5,52,0.00,CLR,FEW,0.00,WeatherDisplay:10.37,2013-08-11 20:00:00,
2013-08-11 16:06:00,75.5,57.2,29.84,West,274,9.2,9.2,53,0.00,CLR,FEW,0.00,WeatherDisplay:10.37,2013-08-11 20:06:00,
2013-08-11 16:12:00,75.7,57.9,29.84,WSW,241,9.2,9.2,54,0.00,CLR,FEW,0.00,WeatherDisplay:10.37,2013-08-11 20:12:00,
2013-08-11 16:18:00,76.0,57.6,29.84,WSW,247,11.5,11.5,53,0.00,CLR,FEW,0.00,WeatherDisplay:10.37,2013-08-11 20:18:00,
2013-08-11 16:23:00,75.9,57.0,29.84,SSW,212,11.5,11.5,52,0.00,CLR,FEW,0.00,WeatherDisplay:10.37,2013-08-11 20:23:00,
2013-08-11 16:28:00,75.5,57.2,29.85,WSW,245,9.2,9.2,53,0.00,CLR,FEW,0.00,WeatherDisplay:10.37,2013-08-11 20:28:00,
2013-08-11 16:34:00,75.5,55.6,29.84,WSW,238,11.0,11.0,50,0.00,CLR,FEW,0.00,WeatherDisplay:10.37,2013-08-11 20:34:00,
2013-08-11 16:39:00,75.4,56.0,29.84,SW,236,7.0,7.0,51,0.00,CLR,FEW,0.00,WeatherDisplay:10.37,2013-08-11 20:39:00,
2013-08-11 16:44:00,75.8,56.4,29.84,WSW,238,5.0,5.0,51,0.00,CLR,FEW,0.00,WeatherDisplay:10.37,2013-08-11 20:44:00,
2013-08-11 16:49:00,75.8,56.9,29.84,SSW,213,10.0,10.0,52,0.00,CLR,FEW,0.00,WeatherDisplay:10.37,2013-08-11 20:49:00,
2013-08-11 16:55:00,75.6,56.7,29.84,SW,215,9.0,9.0,52,0.00,CLR,FEW,0.00,WeatherDisplay:10.37,2013-08-11 20:55:00,
2013-08-11 17:00:00,75.4,57.1,29.84,WSW,238,7.0,12.0,53,0.00,CLR,FEW,0.00,WeatherDisplay:10.37,2013-08-11 21:00:00,
2013-08-11 17:05:00,75.6,57.8,29.83,WSW,241,3.0,8.0,54,0.00,CLR,FEW,0.00,WeatherDisplay:10.37,2013-08-11 21:05:00,
2013-08-11 17:10:00,75.9,58.1,29.83,WSW,247,3.0,9.0,54,0.00,CLR,FEW,0.00,WeatherDisplay:10.37,2013-08-11 21:10:00,
2013-08-11 17:15:00,76.2,57.8,29.83,West,271,6.9,6.9,53,0.00,CLR,FEW,0.00,WeatherDisplay:10.37,2013-08-11 21:15:00,
2013-08-11 17:20:00,76.4,57.5,29.83,WSW,255,8.1,8.1,52,0.00,CLR,FEW,0.00,WeatherDisplay:10.37,2013-08-11 21:20:00,
2013-08-11 17:25:00,76.0,58.2,29.83,WSW,239,3.5,3.5,54,0.00,CLR,FEW,0.00,WeatherDisplay:10.37,2013-08-11 21:25:00,
2013-08-11 17:30:00,75.9,58.1,29.83,WSW,249,11.5,11.5,54,0.00,CLR,FEW,0.00,WeatherDisplay:10.37,2013-08-11 21:30:00,
2013-08-11 17:36:00,75.8,58.0,29.83,SW,234,8.0,8.0,54,0.00,CLR,FEW,0.00,WeatherDisplay:10.37,2013-08-11 21:36:00,
2013-08-11 17:41:00,75.5,58.2,29.83,WSW,243,8.0,8.0,55,0.00,CLR,FEW,0.00,WeatherDisplay:10.37,2013-08-11 21:41:00,
2013-08-11 17:46:00,75.6,58.8,29.83,WSW,254,10.0,10.0,56,0.00,CLR,FEW,0.00,WeatherDisplay:10.37,2013-08-11 21:46:00,
2013-08-11 17:51:00,75.9,59.1,29.83,WSW,254,9.2,9.2,56,0.00,CLR,FEW,0.00,WeatherDisplay:10.37,2013-08-11 21:51:00,
2013-08-11 17:56:00,76.0,59.2,29.83,WSW,245,4.6,4.6,56,0.00,CLR,FEW,0.00,WeatherDisplay:10.37,2013-08-11 21:56:00,
2013-08-11 18:01:00,75.9,59.1,29.83,WSW,240,3.5,3.5,56,0.00,CLR,FEW,0.00,WeatherDisplay:10.37,2013-08-11 22:01:00,
2013-08-11 18:07:00,75.9,59.6,29.83,West,271,5.8,5.8,57,0.00,CLR,FEW,0.00,WeatherDisplay:10.37,2013-08-11 22:07:00,
2013-08-11 18:12:00,75.8,59.5,29.83,WSW,256,10.4,10.4,57,0.00,CLR,FEW,0.00,WeatherDisplay:10.37,2013-08-11 22:12:00,
2013-08-11 18:17:00,76.1,59.8,29.82,WSW,257,4.6,4.6,57,0.00,CLR,FEW,0.00,WeatherDisplay:10.37,2013-08-11 22:17:00,
2013-08-11 18:23:00,76.5,59.6,29.82,NW,309,10.0,10.0,56,0.00,CLR,FEW,0.00,WeatherDisplay:10.37,2013-08-11 22:23:00,
2013-08-11 18:28:00,76.5,60.1,29.82,West,270,6.0,6.0,57,0.00,CLR,FEW,0.00,WeatherDisplay:10.37,2013-08-11 22:28:00,
2013-08-11 18:33:00,76.5,60.1,29.82,WSW,255,8.1,8.1,57,0.00,CLR,FEW,0.00,WeatherDisplay:10.37,2013-08-11 22:33:00,
2013-08-11 18:38:00,76.3,59.9,29.82,WSW,240,8.1,8.1,57,0.00,CLR,FEW,0.00,WeatherDisplay:10.37,2013-08-11 22:38:00,
2013-08-11 18:43:00,76.3,59.9,29.82,WSW,249,9.2,9.2,57,0.00,CLR,FEW,0.00,WeatherDisplay:10.37,2013-08-11 22:43:00,
2013-08-11 18:48:00,76.1,60.2,29.82,SW,214,5.8,5.8,58,0.00,CLR,FEW,0.00,WeatherDisplay:10.37,2013-08-11 22:48:00,
2013-08-11 18:53:00,76.0,60.2,29.82,SW,219,6.0,6.0,58,0.00,CLR,FEW,0.00,WeatherDisplay:10.37,2013-08-11 22:53:00,
2013-08-11 18:58:00,75.6,60.3,29.82,SW,232,6.0,6.0,59,0.00,CLR,FEW,0.00,WeatherDisplay:10.37,2013-08-11 22:58:00,
2013-08-11 19:03:00,75.6,60.7,29.82,WSW,249,3.5,3.5,60,0.00,CLR,FEW,0.00,WeatherDisplay:10.37,2013-08-11 23:03:00,
2013-08-11 19:09:00,75.5,61.1,29.82,WSW,241,3.5,3.5,61,0.00,CLR,FEW,0.00,WeatherDisplay:10.37,2013-08-11 23:09:00,
2013-08-11 19:14:00,75.5,61.1,29.82,WSW,241,2.3,2.3,61,0.00,CLR,FEW,0.00,WeatherDisplay:10.37,2013-08-11 23:14:00,
2013-08-11 19:20:00,75.5,61.5,29.82,WSW,244,2.0,5.0,62,0.00,CLR,FEW,0.00,WeatherDisplay:10.37,2013-08-11 23:20:00,
2013-08-11 19:25:00,75.5,61.6,29.82,WSW,247,3.5,3.5,62,0.00,CLR,FEW,0.00,WeatherDisplay:10.37,2013-08-11 23:25:00,
2013-08-11 19:31:00,75.5,61.6,29.82,WSW,248,3.5,3.5,62,0.00,CLR,FEW,0.00,WeatherDisplay:10.37,2013-08-11 23:31:00,
2013-08-11 19:36:00,75.5,61.6,29.82,WSW,248,1.2,1.2,62,0.00,CLR,FEW,0.00,WeatherDisplay:10.37,2013-08-11 23:36:00,
2013-08-11 19:42:00,75.4,61.5,29.83,WSW,251,4.0,4.0,62,0.00,CLR,FEW,0.00,WeatherDisplay:10.37,2013-08-11 23:42:00,
2013-08-11 19:47:00,75.3,61.4,29.83,West,264,3.5,3.5,62,0.00,CLR,FEW,0.00,WeatherDisplay:10.37,2013-08-11 23:47:00,
2013-08-11 19:52:00,75.4,61.5,29.83,West,264,4.6,4.6,62,0.00,CLR,FEW,0.00,WeatherDisplay:10.37,2013-08-11 23:52:00,
2013-08-11 19:57:00,75.4,61.5,29.83,West,264,1.2,1.2,62,0.00,CLR,FEW,0.00,WeatherDisplay:10.37,2013-08-11 23:57:00,
2013-08-11 20:02:00,75.0,61.1,29.82,WSW,253,3.5,3.5,62,0.00,CLR,FEW,0.00,WeatherDisplay:10.37,2013-08-12 00:02:00,
2013-08-11 20:07:00,74.8,61.4,29.83,WSW,253,1.2,0.0,63,0.00,CLR,FEW,0.00,WeatherDisplay:10.37,2013-08-12 00:07:00,
2013-08-11 20:12:00,74.7,62.1,29.82,WSW,253,0.0,0.0,65,0.00,CLR,FEW,0.00,WeatherDisplay:10.37,2013-08-12 00:12:00,
2013-08-11 20:17:00,74.4,62.3,29.82,WSW,253,0.0,0.0,66,0.00,CLR,FEW,0.00,WeatherDisplay:10.37,2013-08-12 00:17:00,
2013-08-11 20:23:00,74.2,62.5,29.82,WSW,253,0.0,0.0,67,0.00,CLR,FEW,0.00,WeatherDisplay:10.37,2013-08-12 00:23:00,
2013-08-11 20:28:00,74.0,62.3,29.82,WSW,253,0.0,0.0,67,0.00,CLR,FEW,0.00,WeatherDisplay:10.37,2013-08-12 00:28:00,
2013-08-11 20:34:00,73.9,62.7,29.83,WSW,253,0.0,0.0,68,0.00,CLR,FEW,0.00,WeatherDisplay:10.37,2013-08-12 00:34:00,
2013-08-11 20:39:00,73.8,63.0,29.83,WSW,253,0.0,0.0,69,0.00,CLR,FEW,0.00,WeatherDisplay:10.37,2013-08-12 00:39:00,
2013-08-11 20:44:00,73.5,63.1,29.83,WSW,253,0.0,0.0,70,0.00,CLR,FEW,0.00,WeatherDisplay:10.37,2013-08-12 00:44:00,
2013-08-11 20:50:00,73.3,63.3,29.83,WSW,253,0.0,0.0,71,0.00,CLR,FEW,0.00,WeatherDisplay:10.37,2013-08-12 00:50:00,
2013-08-11 20:55:00,73.1,63.1,29.83,WSW,253,0.0,0.0,71,0.00,CLR,FEW,0.00,WeatherDisplay:10.37,2013-08-12 00:55:00,
2013-08-11 21:00:00,73.0,63.4,29.83,WSW,253,1.2,0.0,72,0.00,CLR,FEW,0.00,WeatherDisplay:10.37,2013-08-12 01:00:00,
2013-08-11 21:05:00,73.0,63.1,29.83,WSW,253,1.0,2.0,71,0.00,CLR,FEW,0.00,WeatherDisplay:10.37,2013-08-12 01:05:00,
2013-08-11 21:10:00,73.1,62.7,29.83,WSW,253,0.0,1.0,70,0.00,CLR,FEW,0.00,WeatherDisplay:10.37,2013-08-12 01:10:00,
2013-08-11 21:15:00,73.1,63.2,29.84,WSW,253,0.0,0.0,71,0.00,CLR,FEW,0.00,WeatherDisplay:10.37,2013-08-12 01:15:00,
2013-08-11 21:20:00,73.1,63.1,29.84,WSW,253,0.0,0.0,71,0.00,CLR,FEW,0.00,WeatherDisplay:10.37,2013-08-12 01:20:00,
2013-08-11 21:25:00,73.0,63.4,29.84,WSW,253,0.0,0.0,72,0.00,CLR,FEW,0.00,WeatherDisplay:10.37,2013-08-12 01:25:00,
2013-08-11 21:30:00,72.9,63.3,29.84,WSW,253,0.0,0.0,72,0.00,CLR,FEW,0.00,WeatherDisplay:10.37,2013-08-12 01:30:00,
2013-08-11 21:35:00,72.8,63.6,29.84,WSW,253,0.0,0.0,73,0.00,CLR,FEW,0.00,WeatherDisplay:10.37,2013-08-12 01:35:00,
2013-08-11 21:40:00,72.7,63.9,29.84,WSW,253,0.0,1.0,74,0.00,CLR,FEW,0.00,WeatherDisplay:10.37,2013-08-12 01:40:00,
2013-08-11 21:45:00,72.6,64.2,29.84,WSW,253,0.0,0.0,75,0.00,CLR,FEW,0.00,WeatherDisplay:10.37,2013-08-12 01:45:00,
2013-08-11 21:50:00,72.5,64.1,29.84,WSW,253,0.0,0.0,75,0.00,CLR,FEW,0.00,WeatherDisplay:10.37,2013-08-12 01:50:00,
2013-08-11 21:55:00,72.4,64.4,29.84,WSW,253,0.0,0.0,76,0.00,CLR,FEW,0.00,WeatherDisplay:10.37,2013-08-12 01:55:00,
2013-08-11 22:00:00,72.5,64.5,29.85,WSW,254,0.0,0.0,76,0.00,CLR,FEW,0.00,WeatherDisplay:10.37,2013-08-12 02:00:00,
2013-08-11 22:05:00,72.5,64.5,29.84,WSW,253,0.0,0.0,76,0.00,CLR,FEW,0.00,WeatherDisplay:10.37,2013-08-12 02:05:00,
2013-08-11 22:10:00,72.5,64.5,29.84,WSW,253,0.0,0.0,76,0.00,CLR,FEW,0.00,WeatherDisplay:10.37,2013-08-12 02:10:00,
2013-08-11 22:15:00,72.5,64.5,29.84,WSW,253,1.2,0.0,76,0.00,CLR,FEW,0.00,WeatherDisplay:10.37,2013-08-12 02:15:00,
2013-08-11 22:21:00,72.5,64.5,29.84,WSW,253,0.0,0.0,76,0.00,CLR,FEW,0.00,WeatherDisplay:10.37,2013-08-12 02:21:00,
2013-08-11 22:26:00,72.4,64.8,29.84,WSW,253,0.0,0.0,77,0.00,CLR,FEW,0.00,WeatherDisplay:10.37,2013-08-12 02:26:00,
2013-08-11 22:31:00,72.3,65.1,29.84,WSW,253,0.0,0.0,78,0.00,CLR,FEW,0.00,WeatherDisplay:10.37,2013-08-12 02:31:00,
2013-08-11 22:36:00,72.2,65.3,29.84,WSW,253,0.0,0.0,79,0.00,CLR,FEW,0.00,WeatherDisplay:10.37,2013-08-12 02:36:00,
2013-08-11 22:42:00,72.0,65.1,29.84,WSW,253,0.0,0.0,79,0.00,CLR,FEW,0.00,WeatherDisplay:10.37,2013-08-12 02:42:00,
2013-08-11 22:48:00,71.9,65.4,29.84,WSW,253,0.0,0.0,80,0.00,CLR,FEW,0.00,WeatherDisplay:10.37,2013-08-12 02:48:00,
2013-08-11 22:53:00,71.8,65.7,29.83,WSW,253,0.0,0.0,81,0.00,CLR,FEW,0.00,WeatherDisplay:10.37,2013-08-12 02:53:00,
2013-08-11 22:58:00,71.8,66.0,29.84,WSW,253,0.0,0.0,82,0.00,CLR,FEW,0.00,WeatherDisplay:10.37,2013-08-12 02:58:00,
2013-08-11 23:03:00,71.8,66.0,29.84,WSW,253,0.0,0.0,82,0.00,CLR,FEW,0.00,WeatherDisplay:10.37,2013-08-12 03:03:00,
2013-08-11 23:08:00,71.7,66.3,29.84,WSW,253,0.0,0.0,83,0.00,CLR,FEW,0.00,WeatherDisplay:10.37,2013-08-12 03:08:00,
2013-08-11 23:13:00,71.7,66.3,29.84,WSW,253,2.3,2.3,83,0.00,CLR,FEW,0.00,WeatherDisplay:10.37,2013-08-12 03:13:00,
2013-08-11 23:18:00,71.7,66.6,29.83,WSW,253,1.2,1.2,84,0.00,CLR,FEW,0.00,WeatherDisplay:10.37,2013-08-12 03:18:00,
2013-08-11 23:24:00,71.6,66.5,29.83,WSW,253,0.0,0.0,84,0.00,CLR,FEW,0.00,WeatherDisplay:10.37,2013-08-12 03:24:00,
2013-08-11 23:29:00,71.5,66.8,29.83,WSW,253,0.0,0.0,85,0.00,CLR,FEW,0.00,WeatherDisplay:10.37,2013-08-12 03:29:00,
2013-08-11 23:34:00,71.4,66.7,29.83,WSW,253,3.5,3.5,85,0.00,CLR,FEW,0.00,WeatherDisplay:10.37,2013-08-12 03:34:00,
2013-08-11 23:40:00,71.4,67.0,29.83,WSW,253,0.0,3.0,86,0.00,CLR,FEW,0.00,WeatherDisplay:10.37,2013-08-12 03:40:00,
2013-08-11 23:45:00,71.4,67.0,29.83,WSW,253,2.0,5.0,86,0.00,CLR,FEW,0.00,WeatherDisplay:10.37,2013-08-12 03:45:00,
2013-08-11 23:50:00,71.3,66.9,29.83,WSW,253,2.0,4.0,86,0.00,CLR,FEW,0.00,WeatherDisplay:10.37,2013-08-12 03:50:00,
2013-08-11 23:55:00,71.3,67.2,29.83,WSW,253,2.3,0.0,87,0.00,CLR,FEW,0.00,WeatherDisplay:10.37,2013-08-12 03:55:00,